Aérodrome :
LOGIN :

S'inscrire | Disclaimer

   EN    FR    IT 

 










Légende :    VFR   VFR Marginal   IFR   IFR Intensif   IFR Très Intensif
Visi : 
Plafond : 
>= 8 km
>= 3000ft
5 à 8 km
1000 à 3000 ft
1500m à 5 km
500 à 1000 ft
800 à 1500m
200 à 500 ft
< 800m
< 200 ft
Symboles :   Orages  Brouillard  Fortes neiges  Fortes précipitations  Vent > 20 kt
SIGMETs :   Divers  Orages  Givrage  Turbulence  Onde Orograph.  Cendres Volcan.






- Altitude de l'aérodrome : 1187 ft


LIBV - Gioia del Colle Bari

DERNIER METAR :
  • 231855Z 17016KT 6000 SCT010 BKN030 12/12 Q1009 RMK OVC VIS MIN 6000 WIND THR32 17012KT WIND THR14 17015KT WHT

METARs EXPIRÉS :
  • 231755Z 16011KT 6000 FEW010 12/12 Q1009 RMK BKN BKN100 VIS MIN 6000 WIND THR32 17011KT WIND THR14 17012KT WHT
  • 231655Z 15011KT 6000 SCT010 BKN040 12/11 Q1008 RMK OVC VIS MIN 6000 WIND THR32 16011KT WIND THR14 16009KT WHT
  • 231555Z 14014KT 6000 SCT010 SCT040 12/11 Q1008 RMK OVC BKN100 VIS MIN 6000 WIND THR32 15013KT WIND THR14 15014KT WHT
  • 231455Z 15013KT 7000 FEW010 SCT040 12/09 Q1008 RMK OVC VIS MIN 7000 WIND THR32 16011KT WIND THR14 16012 WHT

TAF TAF LIBV
Valide du 23 à 18h jusqu'au 24 à 03h UTC


231700Z 2318/2403 17015KT 5000 BR SCT008 BKN020



MET'MAP, la Météo Aéronautique d'un coup d'oeil ! - Copyright ORBIFLY Décembre 2007 - Disclaimer

ORBIFLY MET'MAP TEAM :

Programmation & Développement : Alexandra Zaïnal
Sur une idée originale de : Baudouin d'Aumeries
Soutien technique & logistique : Manuel Goepfert
Assistance : Marc-Olivier Méhu




SOURCES & CREDITS :

   NOAA